createdAt,value
2022-09-23T00:06:48.687Z,56.20
2022-09-23T00:13:51.751Z,46.60
2022-09-23T00:20:44.789Z,39.00
2022-09-23T00:27:47.881Z,39.60
2022-09-23T00:34:43.288Z,33.20
2022-09-23T00:41:45.387Z,47.50
2022-09-23T00:48:49.000Z,35.40
2022-09-23T00:55:00.307Z,31.10
2022-09-23T01:01:44.511Z,25.40
2022-09-23T01:08:39.262Z,25.40
2022-09-23T01:15:59.740Z,25.50
2022-09-23T01:22:52.199Z,24.70
2022-09-23T01:30:15.948Z,21.60
2022-09-23T01:37:08.616Z,27.20
2022-09-23T01:43:56.855Z,21.40
2022-09-23T01:50:57.219Z,20.70
2022-09-23T01:58:06.194Z,22.90
2022-09-23T02:05:13.253Z,23.00
2022-09-23T02:12:10.586Z,17.10
2022-09-23T02:19:25.115Z,18.10
2022-09-23T02:26:30.200Z,18.40
2022-09-23T02:33:05.513Z,19.20
2022-09-23T02:40:16.289Z,18.00
2022-09-23T02:47:12.353Z,36.00
2022-09-23T02:54:15.200Z,44.70
2022-09-23T03:00:51.684Z,36.10
2022-09-23T03:07:35.638Z,27.20
2022-09-23T03:14:26.069Z,31.10
2022-09-23T03:21:40.812Z,26.60
2022-09-23T03:28:36.636Z,28.90
2022-09-23T03:35:12.384Z,27.00
2022-09-23T03:41:20.232Z,29.10
2022-09-23T03:48:05.538Z,22.10
2022-09-23T03:54:43.763Z,21.10
2022-09-23T04:01:27.075Z,21.60
2022-09-23T04:07:23.893Z,24.50
2022-09-23T04:14:13.584Z,23.30
2022-09-23T04:21:16.604Z,20.90
2022-09-23T04:27:07.225Z,22.80
2022-09-23T04:33:18.288Z,20.10
2022-09-23T04:39:40.077Z,19.00
2022-09-23T04:46:24.057Z,23.40
2022-09-23T04:52:57.392Z,20.20
2022-09-23T04:59:30.253Z,21.10
2022-09-23T05:06:30.644Z,19.80
2022-09-23T05:13:26.571Z,22.60
2022-09-23T05:20:14.076Z,21.70
2022-09-23T05:26:40.668Z,41.70
2022-09-23T05:33:26.511Z,32.40
2022-09-23T05:40:23.126Z,32.20
2022-09-23T05:47:32.299Z,34.90
2022-09-23T05:54:35.227Z,23.20
2022-09-23T06:01:36.801Z,27.90
2022-09-23T06:07:52.240Z,24.20
2022-09-23T06:13:49.764Z,23.50
2022-09-23T06:20:42.516Z,23.20
2022-09-23T06:27:45.624Z,22.70
2022-09-23T06:34:52.219Z,23.80
2022-09-23T06:41:55.515Z,37.80
2022-09-23T06:48:58.771Z,30.00
2022-09-23T06:55:50.428Z,35.40
2022-09-23T07:02:44.456Z,36.90
2022-09-23T07:09:47.376Z,33.10
2022-09-23T07:16:50.402Z,29.70
2022-09-23T07:23:53.391Z,26.40
2022-09-23T07:31:00.248Z,23.30
2022-09-23T07:37:57.278Z,26.40
2022-09-23T07:44:59.025Z,23.20
2022-09-23T07:52:08.033Z,26.50
2022-09-23T07:58:53.994Z,64.60
2022-09-23T08:05:57.346Z,23.70
2022-09-23T08:13:00.583Z,18.70
2022-09-23T08:20:06.712Z,21.30
2022-09-23T08:27:08.754Z,13.40
2022-09-23T08:34:04.117Z,11.10
2022-09-23T08:41:00.191Z,8.90
2022-09-23T08:47:47.138Z,11.70
2022-09-23T08:54:33.383Z,13.60
2022-09-23T09:01:44.918Z,11.00
2022-09-23T09:08:50.884Z,12.40
2022-09-23T09:16:05.765Z,5.50
2022-09-23T09:23:11.735Z,5.30
2022-09-23T09:29:56.601Z,5.60
2022-09-23T09:37:19.012Z,6.50
2022-09-23T09:44:23.020Z,3.10
2022-09-23T09:51:05.922Z,6.60
2022-09-23T09:58:04.643Z,6.40
2022-09-23T10:05:02.369Z,2.00
2022-09-23T10:12:17.397Z,18.10
2022-09-23T10:19:12.786Z,7.60
2022-09-23T10:26:20.366Z,6.60
2022-09-23T10:33:15.888Z,6.30
2022-09-23T10:40:02.166Z,7.40
2022-09-23T10:47:17.590Z,10.00
2022-09-23T10:54:18.975Z,17.40
2022-09-23T11:01:58.025Z,5.70
2022-09-23T11:08:50.532Z,8.90
2022-09-23T11:15:51.980Z,4.80
2022-09-23T11:22:54.722Z,5.20
2022-09-23T11:29:03.665Z,1.90
2022-09-23T11:35:21.648Z,2.80
2022-09-23T11:42:16.437Z,3.20
2022-09-23T11:49:04.604Z,3.60
2022-09-23T11:55:39.533Z,4.70
2022-09-23T12:03:03.895Z,4.80
2022-09-23T12:10:22.972Z,3.70
2022-09-23T12:17:55.778Z,2.90
2022-09-23T12:25:16.902Z,3.60
2022-09-23T12:32:20.107Z,3.30
2022-09-23T12:39:41.406Z,3.80
2022-09-23T12:53:23.397Z,4.40
2022-09-23T13:01:05.836Z,2.50
2022-09-23T13:08:27.830Z,3.10
2022-09-23T13:15:23.707Z,4.10
2022-09-23T13:22:44.090Z,4.20
2022-09-23T13:30:08.055Z,5.40
2022-09-23T13:37:09.943Z,3.40
2022-09-23T13:44:04.555Z,3.30
2022-09-23T13:50:46.671Z,3.80
2022-09-23T13:57:19.414Z,5.20
2022-09-23T14:04:07.178Z,4.00
2022-09-23T14:10:58.942Z,5.80
2022-09-23T14:17:42.637Z,4.00
2022-09-23T14:24:24.885Z,10.60
2022-09-23T14:31:08.133Z,8.70
2022-09-23T14:37:41.058Z,6.80
2022-09-23T14:44:20.587Z,6.90
2022-09-23T14:50:57.259Z,7.70
2022-09-23T14:58:04.208Z,8.50
2022-09-23T15:05:18.735Z,24.10
2022-09-23T15:12:24.588Z,11.10
2022-09-23T15:19:07.702Z,17.90
2022-09-23T15:26:16.654Z,16.10
2022-09-23T15:32:37.220Z,20.20
2022-09-23T15:39:31.952Z,38.10
2022-09-23T15:45:30.805Z,26.20
2022-09-23T15:51:42.589Z,21.10
2022-09-23T15:57:40.937Z,20.80
2022-09-23T16:03:37.518Z,17.10
2022-09-23T16:09:47.768Z,19.70
2022-09-23T16:16:16.089Z,20.90
2022-09-23T16:23:01.521Z,24.00
2022-09-23T16:29:53.975Z,21.70
2022-09-23T16:36:05.673Z,37.10
2022-09-23T16:42:16.676Z,42.20
2022-09-23T16:49:11.330Z,37.10
2022-09-23T16:55:31.062Z,43.10
2022-09-23T17:02:19.113Z,69.20
2022-09-23T17:08:54.984Z,220.10
2022-09-23T17:15:00.675Z,234.50
2022-09-23T17:21:23.688Z,188.20
2022-09-23T17:28:26.666Z,102.60
2022-09-23T17:35:02.883Z,123.50
2022-09-23T17:42:12.524Z,118.40
2022-09-23T17:49:16.276Z,126.60
2022-09-23T17:56:09.727Z,140.70
2022-09-23T18:02:31.728Z,211.30
2022-09-23T18:08:45.781Z,207.30
2022-09-23T18:15:40.838Z,258.30
2022-09-23T18:22:20.519Z,288.10
2022-09-23T18:28:57.266Z,260.50
2022-09-23T18:35:51.861Z,287.50
2022-09-23T18:42:34.797Z,235.80
2022-09-23T18:49:21.049Z,279.70
2022-09-23T18:56:19.561Z,147.30
2022-09-23T19:03:11.741Z,167.20
2022-09-23T19:10:15.224Z,297.90
2022-09-23T19:16:32.064Z,134.70
2022-09-23T19:22:40.476Z,122.70
2022-09-23T19:28:37.502Z,116.40
2022-09-23T19:34:50.102Z,127.80
2022-09-23T19:41:18.159Z,162.90
2022-09-23T19:48:12.119Z,206.90
2022-09-23T19:54:34.360Z,164.50
2022-09-23T20:01:10.098Z,145.60
2022-09-23T20:07:35.117Z,134.90
2022-09-23T20:14:29.544Z,110.10
2022-09-23T20:21:08.298Z,103.00
2022-09-23T20:28:11.775Z,110.30
2022-09-23T20:34:42.251Z,116.60
2022-09-23T20:41:45.790Z,115.10
2022-09-23T20:48:49.119Z,124.80
2022-09-23T20:55:52.767Z,154.90
2022-09-23T21:01:58.719Z,172.70
2022-09-23T21:08:48.687Z,182.20
2022-09-23T21:15:43.333Z,185.30
2022-09-23T21:22:36.682Z,173.90
2022-09-23T21:29:36.772Z,139.30
2022-09-23T21:36:39.943Z,171.70
2022-09-23T21:43:42.985Z,153.50
2022-09-23T21:50:46.619Z,155.40
2022-09-23T21:57:42.492Z,129.80
2022-09-23T22:04:45.596Z,151.30
2022-09-23T22:11:47.512Z,128.00
2022-09-23T22:18:40.985Z,120.60
2022-09-23T22:25:28.278Z,133.70
2022-09-23T22:32:30.095Z,159.20
2022-09-23T22:39:25.947Z,144.30
2022-09-23T22:46:29.414Z,137.50
2022-09-23T22:53:32.628Z,135.70
2022-09-23T23:00:30.409Z,147.80
2022-09-23T23:07:33.473Z,137.10
2022-09-23T23:14:10.358Z,119.20
2022-09-23T23:21:05.001Z,114.50
2022-09-23T23:28:08.485Z,122.00
2022-09-23T23:35:11.570Z,128.20
2022-09-23T23:42:14.683Z,126.00
2022-09-23T23:49:20.598Z,111.00
2022-09-23T23:56:24.558Z,103.80
